IWINK ZZZZ-LOWZ
Flight info
| Callsign | IWINK |
|---|---|
| Flight time | N/A |
| Altitude | 8500 |
| Route | SIERRA |
| Aircraft | AS50/L-VGDW/C |
Departure
| Time | N/A |
|---|---|
| Airport | ZZZZ |
Arrival
| Time | 2026-04-29 17:31 |
|---|---|
| Airport | Zell am See Airfield (LOWZ) |
| Time | Latitude | Longitude | Altitude | Speed | Heading |
|---|---|---|---|---|---|
| 2026-04-29 16:50 | 46.58376 | 12.25504 | 5741 ft | 0 kts | 354° |
| 2026-04-29 16:53 | 46.58376 | 12.25502 | 5756 ft | 4 kts | 342° |
| 2026-04-29 16:53 | 46.58294 | 12.25601 | 5971 ft | 27 kts | 34° |
| 2026-04-29 16:53 | 46.58530 | 12.25764 | 6192 ft | 66 kts | 354° |
| 2026-04-29 16:53 | 46.59050 | 12.25745 | 6454 ft | 91 kts | 356° |
| 2026-04-29 16:54 | 46.59752 | 12.25806 | 6613 ft | 103 kts | 1° |
| 2026-04-29 16:54 | 46.60484 | 12.25914 | 6831 ft | 106 kts | 4° |
| 2026-04-29 16:54 | 46.61170 | 12.25928 | 7210 ft | 101 kts | 358° |
| 2026-04-29 16:54 | 46.61860 | 12.26118 | 7532 ft | 100 kts | 11° |
| 2026-04-29 16:55 | 46.62530 | 12.26514 | 7679 ft | 112 kts | 26° |
| 2026-04-29 16:55 | 46.63264 | 12.27144 | 7647 ft | 127 kts | 27° |
| 2026-04-29 16:55 | 46.64087 | 12.27623 | 7689 ft | 126 kts | 11° |
| 2026-04-29 16:55 | 46.64946 | 12.27885 | 7697 ft | 131 kts | 13° |
| 2026-04-29 16:56 | 46.65832 | 12.28244 | 7749 ft | 134 kts | 17° |
| 2026-04-29 16:56 | 46.66736 | 12.28792 | 7446 ft | 149 kts | 24° |
| 2026-04-29 16:56 | 46.67686 | 12.29514 | 7096 ft | 152 kts | 31° |
| 2026-04-29 16:56 | 46.68551 | 12.30372 | 6874 ft | 150 kts | 34° |
| 2026-04-29 16:57 | 46.69377 | 12.31221 | 6774 ft | 145 kts | 35° |
| 2026-04-29 16:57 | 46.70200 | 12.32167 | 6424 ft | 154 kts | 41° |
| 2026-04-29 16:57 | 46.70925 | 12.33332 | 5954 ft | 162 kts | 51° |
| 2026-04-29 16:57 | 46.71778 | 12.34346 | 5537 ft | 153 kts | 24° |
| 2026-04-29 16:58 | 46.72575 | 12.35004 | 5894 ft | 125 kts | 44° |
| 2026-04-29 16:58 | 46.73091 | 12.36069 | 5973 ft | 133 kts | 57° |
| 2026-04-29 16:58 | 46.73459 | 12.37424 | 5622 ft | 154 kts | 73° |
| 2026-04-29 16:58 | 46.73504 | 12.38821 | 6054 ft | 124 kts | 91° |
| 2026-04-29 16:59 | 46.73560 | 12.40179 | 5875 ft | 145 kts | 78° |
| 2026-04-29 16:59 | 46.73732 | 12.41653 | 5759 ft | 148 kts | 79° |
| 2026-04-29 16:59 | 46.73871 | 12.43127 | 5707 ft | 145 kts | 78° |
| 2026-04-29 16:59 | 46.74064 | 12.44572 | 5618 ft | 145 kts | 76° |
| 2026-04-29 17:00 | 46.74263 | 12.45993 | 5536 ft | 146 kts | 77° |
| 2026-04-29 17:00 | 46.74428 | 12.47480 | 5360 ft | 150 kts | 82° |
| 2026-04-29 17:00 | 46.74486 | 12.49002 | 5221 ft | 148 kts | 81° |
| 2026-04-29 17:00 | 46.74704 | 12.50357 | 5503 ft | 123 kts | 67° |
| 2026-04-29 17:01 | 46.75000 | 12.51533 | 5564 ft | 133 kts | 67° |
| 2026-04-29 17:01 | 46.75323 | 12.52817 | 5543 ft | 138 kts | 66° |
| 2026-04-29 17:01 | 46.75656 | 12.54169 | 5451 ft | 143 kts | 68° |
| 2026-04-29 17:01 | 46.75962 | 12.55597 | 5171 ft | 151 kts | 71° |
| 2026-04-29 17:02 | 46.76250 | 12.57062 | 5015 ft | 149 kts | 73° |
| 2026-04-29 17:02 | 46.76445 | 12.58484 | 5088 ft | 138 kts | 76° |
| 2026-04-29 17:02 | 46.76686 | 12.59853 | 5110 ft | 139 kts | 70° |
| 2026-04-29 17:02 | 46.76976 | 12.61220 | 4998 ft | 145 kts | 71° |
| 2026-04-29 17:03 | 46.77224 | 12.62647 | 4951 ft | 144 kts | 73° |
| 2026-04-29 17:03 | 46.77498 | 12.64076 | 4823 ft | 147 kts | 73° |
| 2026-04-29 17:03 | 46.77768 | 12.65502 | 4750 ft | 145 kts | 72° |
| 2026-04-29 17:03 | 46.78071 | 12.66908 | 4620 ft | 147 kts | 70° |
| 2026-04-29 17:04 | 46.78383 | 12.68352 | 4445 ft | 150 kts | 72° |
| 2026-04-29 17:04 | 46.78680 | 12.69832 | 4214 ft | 151 kts | 70° |
| 2026-04-29 17:04 | 46.79089 | 12.71203 | 4110 ft | 146 kts | 63° |
| 2026-04-29 17:04 | 46.79511 | 12.72531 | 4028 ft | 142 kts | 62° |
| 2026-04-29 17:05 | 46.79946 | 12.73802 | 4033 ft | 137 kts | 62° |
| 2026-04-29 17:05 | 46.80363 | 12.75064 | 3884 ft | 144 kts | 64° |
| 2026-04-29 17:05 | 46.80714 | 12.76439 | 3822 ft | 141 kts | 70° |
| 2026-04-29 17:05 | 46.81002 | 12.77831 | 3691 ft | 146 kts | 78° |
| 2026-04-29 17:06 | 46.80750 | 12.79256 | 3596 ft | 151 kts | 116° |
| 2026-04-29 17:06 | 46.80254 | 12.80576 | 3678 ft | 144 kts | 117° |
| 2026-04-29 17:06 | 46.79728 | 12.81828 | 3718 ft | 144 kts | 117° |
| 2026-04-29 17:06 | 46.79355 | 12.83120 | 3889 ft | 136 kts | 106° |
| 2026-04-29 17:07 | 46.79055 | 12.84413 | 3838 ft | 148 kts | 104° |
| 2026-04-29 17:07 | 46.78700 | 12.85907 | 3451 ft | 163 kts | 108° |
| 2026-04-29 17:07 | 46.78311 | 12.87349 | 3463 ft | 134 kts | 94° |
| 2026-04-29 17:07 | 46.78725 | 12.88424 | 3138 ft | 146 kts | 39° |
| 2026-04-29 17:08 | 46.79618 | 12.88597 | 2986 ft | 131 kts | 332° |
| 2026-04-29 17:08 | 46.80071 | 12.87363 | 2756 ft | 137 kts | 294° |
| 2026-04-29 17:08 | 46.80365 | 12.86174 | 3073 ft | 128 kts | 291° |
| 2026-04-29 17:08 | 46.80764 | 12.84952 | 3152 ft | 133 kts | 301° |
| 2026-04-29 17:09 | 46.81156 | 12.83752 | 3329 ft | 132 kts | 297° |
| 2026-04-29 17:09 | 46.81452 | 12.82487 | 3475 ft | 134 kts | 289° |
| 2026-04-29 17:09 | 46.81714 | 12.81130 | 3487 ft | 140 kts | 293° |
| 2026-04-29 17:09 | 46.82110 | 12.79868 | 3578 ft | 137 kts | 298° |
| 2026-04-29 17:10 | 46.82526 | 12.78582 | 3537 ft | 143 kts | 299° |
| 2026-04-29 17:10 | 46.82957 | 12.77217 | 3345 ft | 153 kts | 296° |
| 2026-04-29 17:10 | 46.83270 | 12.75753 | 3273 ft | 148 kts | 290° |
| 2026-04-29 17:10 | 46.83610 | 12.74307 | 3106 ft | 150 kts | 294° |
| 2026-04-29 17:11 | 46.83929 | 12.72886 | 3047 ft | 147 kts | 294° |
| 2026-04-29 17:11 | 46.84410 | 12.71611 | 3097 ft | 138 kts | 309° |
| 2026-04-29 17:11 | 46.85028 | 12.70630 | 3282 ft | 132 kts | 318° |
| 2026-04-29 17:11 | 46.85698 | 12.69661 | 3272 ft | 138 kts | 319° |
| 2026-04-29 17:12 | 46.86397 | 12.68718 | 3307 ft | 136 kts | 322° |
| 2026-04-29 17:12 | 46.87107 | 12.67840 | 3444 ft | 131 kts | 323° |
| 2026-04-29 17:12 | 46.87815 | 12.67010 | 3523 ft | 133 kts | 324° |
| 2026-04-29 17:12 | 46.88296 | 12.66431 | 3559 ft | 133 kts | 321° |
| 2026-04-29 17:13 | 46.89151 | 12.65026 | 3412 ft | 142 kts | 313° |
| 2026-04-29 17:13 | 46.89767 | 12.63912 | 3459 ft | 138 kts | 312° |
| 2026-04-29 17:13 | 46.90421 | 12.62876 | 3465 ft | 137 kts | 315° |
| 2026-04-29 17:13 | 46.91016 | 12.61797 | 3515 ft | 136 kts | 313° |
| 2026-04-29 17:14 | 46.91620 | 12.60720 | 3529 ft | 139 kts | 310° |
| 2026-04-29 17:14 | 46.92166 | 12.59573 | 3680 ft | 130 kts | 308° |
| 2026-04-29 17:14 | 46.92671 | 12.58532 | 3923 ft | 126 kts | 308° |
| 2026-04-29 17:14 | 46.93329 | 12.57516 | 3658 ft | 144 kts | 328° |
| 2026-04-29 17:15 | 46.94182 | 12.56906 | 3753 ft | 137 kts | 340° |
| 2026-04-29 17:15 | 46.95049 | 12.56307 | 3693 ft | 142 kts | 335° |
| 2026-04-29 17:15 | 46.95931 | 12.55649 | 3681 ft | 137 kts | 339° |
| 2026-04-29 17:15 | 46.96787 | 12.55136 | 3785 ft | 130 kts | 340° |
| 2026-04-29 17:16 | 46.97642 | 12.54656 | 3802 ft | 136 kts | 340° |
| 2026-04-29 17:16 | 46.98533 | 12.54173 | 3836 ft | 133 kts | 343° |
| 2026-04-29 17:16 | 46.99409 | 12.53808 | 3947 ft | 131 kts | 347° |
| 2026-04-29 17:16 | 47.00317 | 12.53528 | 3943 ft | 134 kts | 348° |
| 2026-04-29 17:17 | 47.01217 | 12.53246 | 4084 ft | 129 kts | 351° |
| 2026-04-29 17:17 | 47.02059 | 12.52875 | 4257 ft | 125 kts | 328° |
| 2026-04-29 17:17 | 47.02729 | 12.52081 | 4357 ft | 127 kts | 335° |
| 2026-04-29 17:17 | 47.03558 | 12.51641 | 4495 ft | 124 kts | 342° |
| 2026-04-29 17:18 | 47.04387 | 12.51359 | 4732 ft | 119 kts | 355° |
| 2026-04-29 17:18 | 47.05150 | 12.51678 | 4929 ft | 122 kts | 30° |
| 2026-04-29 17:18 | 47.05915 | 12.52422 | 4755 ft | 137 kts | 29° |
| 2026-04-29 17:18 | 47.06792 | 12.52886 | 4900 ft | 125 kts | 12° |
| 2026-04-29 17:19 | 47.07606 | 12.52972 | 5238 ft | 114 kts | 356° |
| 2026-04-29 17:19 | 47.08360 | 12.52595 | 5448 ft | 119 kts | 331° |
| 2026-04-29 17:19 | 47.09102 | 12.51983 | 5607 ft | 127 kts | 332° |
| 2026-04-29 17:19 | 47.09912 | 12.51321 | 5603 ft | 134 kts | 334° |
| 2026-04-29 17:20 | 47.10688 | 12.50632 | 5660 ft | 133 kts | 325° |
| 2026-04-29 17:20 | 47.11407 | 12.49720 | 5707 ft | 135 kts | 326° |
| 2026-04-29 17:20 | 47.12077 | 12.48784 | 5865 ft | 131 kts | 325° |
| 2026-04-29 17:20 | 47.12599 | 12.47827 | 6296 ft | 123 kts | 294° |
| 2026-04-29 17:21 | 47.13040 | 12.47114 | 7020 ft | 78 kts | 351° |
| 2026-04-29 17:21 | 47.13462 | 12.47376 | 7567 ft | 69 kts | 18° |
| 2026-04-29 17:21 | 47.13952 | 12.47624 | 7959 ft | 79 kts | 11° |
| 2026-04-29 17:21 | 47.14476 | 12.47554 | 8333 ft | 88 kts | 339° |
| 2026-04-29 17:22 | 47.14991 | 12.47149 | 8768 ft | 86 kts | 334° |
| 2026-04-29 17:22 | 47.15539 | 12.46836 | 9258 ft | 82 kts | 336° |
| 2026-04-29 17:22 | 47.16072 | 12.46931 | 9570 ft | 94 kts | 30° |
| 2026-04-29 17:22 | 47.16700 | 12.47658 | 9223 ft | 139 kts | 34° |
| 2026-04-29 17:23 | 47.17535 | 12.48356 | 9279 ft | 131 kts | 19° |
| 2026-04-29 17:23 | 47.18467 | 12.48039 | 8755 ft | 157 kts | 329° |
| 2026-04-29 17:23 | 47.19369 | 12.47325 | 8745 ft | 143 kts | 342° |
| 2026-04-29 17:23 | 47.20370 | 12.47451 | 7896 ft | 175 kts | 24° |
| 2026-04-29 17:24 | 47.21545 | 12.48054 | 6511 ft | 188 kts | 20° |
| 2026-04-29 17:24 | 47.22747 | 12.48483 | 5886 ft | 171 kts | 13° |
| 2026-04-29 17:24 | 47.23883 | 12.48485 | 5531 ft | 157 kts | 357° |
| 2026-04-29 17:24 | 47.24921 | 12.48407 | 5361 ft | 141 kts | 4° |
| 2026-04-29 17:25 | 47.25861 | 12.48640 | 5151 ft | 138 kts | 21° |
| 2026-04-29 17:25 | 47.26687 | 12.49370 | 4838 ft | 139 kts | 41° |
| 2026-04-29 17:25 | 47.27244 | 12.50448 | 4702 ft | 129 kts | 63° |
| 2026-04-29 17:25 | 47.27492 | 12.51679 | 4618 ft | 124 kts | 78° |
| 2026-04-29 17:26 | 47.27571 | 12.52928 | 4497 ft | 125 kts | 87° |
| 2026-04-29 17:26 | 47.27549 | 12.54156 | 4490 ft | 117 kts | 91° |
| 2026-04-29 17:26 | 47.27470 | 12.55394 | 4402 ft | 118 kts | 92° |
| 2026-04-29 17:26 | 47.27420 | 12.56579 | 4379 ft | 117 kts | 90° |
| 2026-04-29 17:27 | 47.27408 | 12.57784 | 4232 ft | 119 kts | 84° |
| 2026-04-29 17:27 | 47.27425 | 12.58968 | 4214 ft | 115 kts | 89° |
| 2026-04-29 17:27 | 47.27410 | 12.60178 | 4107 ft | 120 kts | 88° |
| 2026-04-29 17:27 | 47.27420 | 12.61411 | 4108 ft | 121 kts | 84° |
| 2026-04-29 17:28 | 47.27423 | 12.62650 | 4158 ft | 122 kts | 88° |
| 2026-04-29 17:28 | 47.27354 | 12.63877 | 4263 ft | 118 kts | 92° |
| 2026-04-29 17:28 | 47.27293 | 12.65027 | 4498 ft | 110 kts | 88° |
| 2026-04-29 17:28 | 47.27313 | 12.66226 | 4426 ft | 124 kts | 81° |
| 2026-04-29 17:29 | 47.27451 | 12.67519 | 4226 ft | 135 kts | 78° |
| 2026-04-29 17:29 | 47.27546 | 12.68903 | 4051 ft | 136 kts | 83° |
| 2026-04-29 17:29 | 47.27584 | 12.70280 | 3997 ft | 130 kts | 88° |
| 2026-04-29 17:29 | 47.27662 | 12.71544 | 4058 ft | 124 kts | 75° |
| 2026-04-29 17:30 | 47.27880 | 12.72792 | 3978 ft | 129 kts | 71° |
| 2026-04-29 17:30 | 47.28146 | 12.74101 | 3635 ft | 134 kts | 73° |
| 2026-04-29 17:30 | 47.28388 | 12.75360 | 3393 ft | 123 kts | 75° |
| 2026-04-29 17:30 | 47.28634 | 12.76502 | 3099 ft | 112 kts | 69° |
| 2026-04-29 17:31 | 47.28855 | 12.77550 | 2792 ft | 95 kts | 75° |
| 2026-04-29 17:31 | 47.29015 | 12.78345 | 2625 ft | 65 kts | 73° |
| 2026-04-29 17:31 | 47.29099 | 12.78795 | 2541 ft | 28 kts | 60° |
| 2026-04-29 17:31 | 47.29179 | 12.78825 | 2505 ft | 3 kts | 341° |
| 2026-04-29 17:32 | 47.29208 | 12.78811 | 2503 ft | 2 kts | 349° |
| 2026-04-29 17:32 | 47.29215 | 12.78809 | 2499 ft | 0 kts | 348° |